< Typhoon 201516 2015 Season Typhoon 201518 >
Typhoon 201517 (KILO)
General InformationTrack Information on Google MapsDetailed Wind InformationForecast History on Google MapsAccess Analytics MapList of All Images || NewsDisaster Info.WeblogTrackbackTyphoon FrontTwiphoonTyphoon Now!Typhoon ImaginationDisaster Info. XMLResourceGoogle EarthGE AnimationAtom FeedGeoJSON
Detalied Best Track (Time Zone = UTC)
Year Month Day Hour Lat. Long. Pressure (hPa) Wind (kt) Class Image Chart
2015 9 1 18 23.7 180.1 945 90 7 Image Chart
2015 9 2 00 24.0 179.8 950 80 5 Image Chart
2015 9 2 06 24.4 179.4 950 80 5 Image Chart
2015 9 2 12 24.6 179.1 965 70 5 Image Chart
2015 9 2 18 24.6 178.5 965 70 5 Image Chart
2015 9 3 00 24.7 178.2 965 70 5 Image Chart
2015 9 3 06 24.6 178.1 965 70 5 Image Chart
2015 9 3 12 24.4 177.7 965 70 5 Image Chart
2015 9 3 18 24.1 177.5 965 70 5 Image Chart
2015 9 4 00 23.8 177.1 970 65 5 Image Chart
2015 9 4 06 23.6 176.6 970 65 5 Image Chart
2015 9 4 12 23.5 175.8 970 65 5 Image Chart
2015 9 4 18 23.5 174.9 970 65 5 Image Chart
2015 9 5 00 23.5 174.0 970 65 5 Image Chart
2015 9 5 06 23.6 173.0 955 75 5 Image Chart
2015 9 5 12 23.5 172.1 955 75 5 Image Chart
2015 9 5 18 23.7 170.7 950 80 5 Image Chart
2015 9 6 00 23.9 169.7 950 80 5 Image Chart
2015 9 6 06 24.0 168.9 950 80 5 Image Chart
2015 9 6 12 24.3 167.6 955 75 5 Image Chart
2015 9 6 18 24.4 166.5 955 75 5 Image Chart
2015 9 7 00 24.7 165.6 955 75 5 Image Chart
2015 9 7 06 25.0 164.2 955 75 5 Image Chart
2015 9 7 12 25.2 163.3 965 70 5 Image Chart
2015 9 7 18 25.6 162.1 965 70 5 Image Chart
2015 9 8 00 26.1 160.3 965 70 5 Image Chart
2015 9 8 06 26.7 158.7 965 70 5 Image Chart
2015 9 8 12 27.2 157.3 965 70 5 Image Chart
2015 9 8 18 28.1 156.0 970 65 5 Image Chart
2015 9 9 00 29.1 154.7 970 65 5 Image Chart
2015 9 9 06 29.7 153.2 970 65 5 Image Chart
2015 9 9 12 30.7 152.5 975 60 4 Image Chart
2015 9 9 18 31.6 151.2 975 60 4 Image Chart
2015 9 10 00 32.6 150.0 975 60 4 Image Chart
2015 9 10 06 34.0 149.6 975 60 4 Image Chart
2015 9 10 12 35.3 149.0 975 60 4 Image Chart
2015 9 10 18 36.9 148.6 975 60 4 Image Chart
2015 9 11 00 38.7 147.4 975 60 4 Image Chart
2015 9 11 06 40.6 147.2 975 60 4 Image Chart
2015 9 11 12 43.0 148.0 980 0 6 Image Chart
2015 9 11 18 45.8 148.6 984 0 6 Image Chart
2015 9 12 00 48.8 149.8 988 0 6 Image Chart
2015 9 12 06 53.2 151.7 988 0 6 Image Chart
2015 9 12 12 55.4 153.7 992 0 6 Image Chart
2015 9 12 18 58.3 156.0 992 0 6 Image Chart
2015 9 13 00 60.5 159.4 992 0 6 Image Chart
Japan Meteorological Agency Best Track Data | Correction Date : 2015-10-13
< Typhoon 201516 2015 Season Typhoon 201518 >

Help